CDT,Max TemperatureF,Mean TemperatureF,Min TemperatureF,Max Dew PointF,MeanDew PointF,Min DewpointF,Max Humidity, Mean Humidity, Min Humidity, Max Sea Level PressureIn, Mean Sea Level PressureIn, Min Sea Level PressureIn, Max VisibilityMiles, Mean VisibilityMiles, Min VisibilityMiles, Max Wind SpeedMPH, Mean Wind SpeedMPH, Max Gust SpeedMPH,PrecipitationIn, CloudCover, Events, WindDirDegrees
2013-10-1,87,78,69,70,69,67,90,75,59,30.05,30.00,29.94,10,9,4,13,6,21,0.00,6,,180
2013-10-2,78,72,66,72,68,64,93,84,74,30.10,30.05,30.01,10,9,2,16,3,21,T,4,Rain-Thunderstorm,184
2013-10-3,89,77,64,74,66,62,93,73,53,30.03,30.00,29.92,10,5,0,16,6,22,T,3,Fog,161
2013-10-4,89,80,71,73,70,68,93,73,52,30.03,29.98,29.94,10,10,6,20,8,26,T,4,,177
2013-10-5,89,73,57,72,68,55,93,75,57,30.01,29.93,29.88,10,7,1,21,9,30,0.00,7,Rain-Thunderstorm,235
2013-10-6,73,64,54,54,48,42,86,62,37,29.99,29.94,29.88,10,10,7,16,7,22,0.00,2,Rain,288
2013-10-7,72,61,50,51,48,45,86,65,44,30.13,30.06,29.96,10,10,10,12,5,54,0.00,1,,346
2013-10-8,73,61,48,52,48,46,89,67,44,30.19,30.13,30.08,10,10,10,16,7,25,0.00,0,,42
2013-10-9,78,64,50,55,55,55,61,61,61,30.15,30.10,30.06,10,10,8,5,2,,0.00,1,,67
2013-10-10,77,67,56,64,63,63,87,83,78,30.16,30.10,30.01,10,4,0,7,1,9,0.00,4,Fog,83
2013-10-11,81,66,51,62,59,55,97,76,54,30.06,30.01,29.94,10,4,0,14,3,21,0.00,2,Fog,142
2013-10-12,79,70,61,,,,,,,30.15,30.07,29.98,10,6,1,14,2,20,0.52,4,Rain-Thunderstorm,263
2013-10-13,77,65,53,,,,,,,30.30,30.22,30.15,10,7,0,16,9,22,0.00,1,Fog,23
2013-10-14,77,65,52,59,59,59,58,58,58,30.26,30.16,30.06,10,10,9,9,6,,T,0,,62
2013-10-15,70,68,65,67,66,63,100,94,87,30.03,29.97,29.90,10,7,1,16,7,21,1.20,8,Rain,168
2013-10-16,65,60,54,64,54,50,100,86,72,30.06,30.01,29.96,10,10,10,13,4,17,0.18,7,Rain,327
2013-10-17,65,58,51,54,51,47,96,74,52,30.06,30.01,29.97,10,10,5,7,2,,0.05,5,Rain,326
2013-10-18,70,58,45,53,51,46,100,82,63,30.07,30.01,29.94,10,9,2,6,1,,T,2,Rain,222
2013-10-19,60,50,40,43,40,37,96,70,44,30.11,30.04,29.94,10,9,4,8,3,22,0.17,5,Rain,329
2013-10-20,66,52,38,45,42,38,100,70,40,30.10,30.04,29.98,10,10,9,13,5,17,0.00,0,,205
2013-10-21,70,58,46,48,47,45,93,70,47,30.07,30.03,29.98,10,10,8,12,4,18,0.12,4,Rain,287
2013-10-22,66,54,41,47,42,37,95,66,37,30.09,30.01,29.89,10,10,10,13,5,16,0.00,2,,270
2013-10-23,60,51,41,44,39,36,93,68,42,30.18,30.10,29.99,10,10,10,14,4,18,0.00,1,,314
2013-10-24,59,50,40,46,37,29,96,68,40,30.42,30.24,30.12,10,10,10,14,6,20,0.00,1,,6
2013-10-25,54,43,32,34,30,26,100,68,35,30.55,30.45,30.32,10,10,10,10,3,15,0.00,0,,35
2013-10-26,67,51,34,49,40,33,92,68,44,30.30,30.18,30.09,10,10,10,18,8,23,0.00,2,,221
2013-10-27,61,54,47,50,45,37,96,77,57,30.12,30.07,30.03,10,10,10,14,4,24,0.00,7,,51
2013-10-28,67,54,41,54,50,41,100,82,63,30.23,30.18,30.07,10,6,0,6,1,12,0.00,3,Fog,195
2013-10-29,72,60,48,64,58,48,100,87,73,30.22,30.17,30.09,10,8,0,13,5,17,0.00,6,Fog,149
2013-10-30,78,70,62,65,63,60,93,81,68,30.14,30.04,29.92,10,10,10,21,8,28,T,5,,183
2013-10-31,72,63,54,67,64,51,100,86,72,29.93,29.69,29.49,10,8,2,30,15,49,1.13,6,Rain,192